createdAt,value
2023-06-04T00:00:18.764Z,96088.59
2023-06-04T00:01:28.130Z,96079.19
2023-06-04T00:02:47.185Z,96092.66
2023-06-04T00:03:56.738Z,96082.34
2023-06-04T00:05:04.848Z,96085.50
2023-06-04T00:06:09.854Z,96074.25
2023-06-04T00:07:16.553Z,96075.91
2023-06-04T00:08:20.036Z,96081.31
2023-06-04T00:09:27.240Z,96072.59
2023-06-04T00:10:31.760Z,96081.44
2023-06-04T00:11:41.412Z,96075.09
2023-06-04T00:12:45.619Z,96077.81
2023-06-04T00:13:55.866Z,96080.78
2023-06-04T00:15:00.537Z,96083.53
2023-06-04T00:16:14.686Z,96087.53
2023-06-04T00:17:25.196Z,96083.38
2023-06-04T00:18:32.459Z,96077.63
2023-06-04T00:19:36.234Z,96082.72
2023-06-04T00:20:42.633Z,96083.75
2023-06-04T00:21:47.513Z,96081.31
2023-06-04T00:23:00.140Z,96082.44
2023-06-04T00:25:17.999Z,96079.47
2023-06-04T00:26:26.811Z,96076.31
2023-06-04T00:27:39.704Z,96079.94
2023-06-04T00:28:43.439Z,96085.25
2023-06-04T00:29:49.886Z,96083.53
2023-06-04T00:30:54.623Z,96088.09
2023-06-04T00:32:01.679Z,96095.91
2023-06-04T00:33:06.097Z,96087.34
2023-06-04T00:34:13.480Z,96090.97
2023-06-04T00:35:21.476Z,96087.91
2023-06-04T00:36:29.577Z,96090.19
2023-06-04T00:37:36.843Z,96085.34
2023-06-04T00:38:41.753Z,96083.13
2023-06-04T00:39:52.770Z,96084.41
2023-06-04T00:40:57.850Z,96092.56
2023-06-04T00:42:05.327Z,96088.66
2023-06-04T00:43:13.216Z,96088.16
2023-06-04T00:44:20.156Z,96089.16
2023-06-04T00:45:27.783Z,96095.53
2023-06-04T00:46:35.394Z,96081.31
2023-06-04T00:47:39.583Z,96086.50
2023-06-04T00:48:47.274Z,96085.50
2023-06-04T00:49:56.892Z,96079.81
2023-06-04T00:51:00.988Z,96083.34
2023-06-04T00:52:14.412Z,96087.03
2023-06-04T00:53:19.071Z,96093.56
2023-06-04T00:54:29.078Z,96088.69
2023-06-04T00:55:33.681Z,96092.47
2023-06-04T00:56:49.342Z,96091.06
2023-06-04T00:57:54.821Z,96090.41
2023-06-04T00:59:05.344Z,96089.72
2023-06-04T01:00:11.925Z,96101.00
2023-06-04T01:01:26.460Z,96103.59
2023-06-04T01:02:32.467Z,96096.91
2023-06-04T01:03:43.332Z,96094.25
2023-06-04T01:04:53.035Z,96096.84
2023-06-04T01:06:06.960Z,96105.28
2023-06-04T01:07:15.151Z,96096.59
2023-06-04T01:08:22.372Z,96103.69
2023-06-04T01:09:27.263Z,96100.88
2023-06-04T01:10:33.893Z,96101.63
2023-06-04T01:11:41.808Z,96098.94
2023-06-04T01:12:49.100Z,96099.78
2023-06-04T01:13:56.466Z,96102.97
2023-06-04T01:15:10.272Z,96095.41
2023-06-04T01:16:16.891Z,96087.91
2023-06-04T01:17:30.768Z,96090.53
2023-06-04T01:18:39.233Z,96092.25
2023-06-04T01:20:19.826Z,96099.97
2023-06-04T01:21:25.120Z,96099.25
2023-06-04T01:22:42.838Z,96094.31
2023-06-04T01:23:51.397Z,96098.75
2023-06-04T01:25:03.409Z,96104.28
2023-06-04T01:26:12.042Z,96088.88
2023-06-04T01:27:24.400Z,96094.41
2023-06-04T01:28:32.191Z,96099.94
2023-06-04T01:29:50.829Z,96098.50
2023-06-04T01:31:05.048Z,96100.59
2023-06-04T01:32:13.362Z,96093.91
2023-06-04T01:33:22.430Z,96102.59
2023-06-04T01:34:35.438Z,96094.22
2023-06-04T01:35:39.820Z,96092.81
2023-06-04T01:36:46.474Z,96100.03
2023-06-04T01:37:52.930Z,96096.69
2023-06-04T01:39:03.471Z,96095.19
2023-06-04T01:40:10.136Z,96097.78
2023-06-04T01:41:16.717Z,96090.94
2023-06-04T01:42:28.039Z,96098.72
2023-06-04T01:43:43.055Z,96105.41
2023-06-04T01:44:51.062Z,96100.53
2023-06-04T01:46:03.112Z,96102.53
2023-06-04T01:47:07.178Z,96097.50
2023-06-04T01:48:17.023Z,96101.94
2023-06-04T01:49:23.304Z,96094.47
2023-06-04T01:50:34.351Z,96096.31
2023-06-04T01:51:38.891Z,96093.09
2023-06-04T01:52:49.975Z,96102.41
2023-06-04T01:53:57.804Z,96094.97
2023-06-04T01:55:04.774Z,96094.25
2023-06-04T01:56:10.420Z,96094.50
2023-06-04T01:57:19.065Z,96097.25
2023-06-04T01:58:29.006Z,96100.91
2023-06-04T01:59:33.983Z,96093.97
2023-06-04T02:00:40.641Z,96097.31
2023-06-04T02:01:47.292Z,96092.31
2023-06-04T02:02:57.936Z,96095.72
2023-06-04T02:04:02.025Z,96095.72
2023-06-04T02:05:10.273Z,96093.91
2023-06-04T02:06:19.307Z,96098.25
2023-06-04T02:07:23.496Z,96092.22
2023-06-04T02:08:32.223Z,96103.59
2023-06-04T02:09:38.042Z,96097.16
2023-06-04T02:10:48.777Z,96099.09
2023-06-04T02:11:55.472Z,96097.47
2023-06-04T02:13:04.275Z,96094.22
2023-06-04T02:14:08.529Z,96095.06
2023-06-04T02:15:16.821Z,96087.50
2023-06-04T02:16:21.229Z,96094.06
2023-06-04T02:17:34.470Z,96087.22
2023-06-04T02:18:41.936Z,96091.81
2023-06-04T02:20:00.203Z,96094.72
2023-06-04T02:21:04.129Z,96092.53
2023-06-04T02:22:19.528Z,96096.88
2023-06-04T02:23:39.084Z,96094.81
2023-06-04T02:24:44.384Z,96100.00
2023-06-04T02:25:52.071Z,96096.66
2023-06-04T02:26:56.942Z,96103.00
2023-06-04T02:28:04.093Z,96096.44
2023-06-04T02:29:09.136Z,96094.81
2023-06-04T02:30:18.823Z,96101.09
2023-06-04T02:31:23.380Z,96102.13
2023-06-04T02:32:38.296Z,96103.84
2023-06-04T02:33:45.447Z,96096.91
2023-06-04T02:34:56.129Z,96103.06
2023-06-04T02:36:07.390Z,96106.28
2023-06-04T02:37:11.313Z,96099.78
2023-06-04T02:38:18.300Z,96104.22
2023-06-04T02:39:23.233Z,96104.16
2023-06-04T02:40:30.518Z,96099.13
2023-06-04T02:41:46.892Z,96104.44
2023-06-04T02:43:06.040Z,96098.50
2023-06-04T02:44:10.226Z,96102.75
2023-06-04T02:45:19.593Z,96106.28
2023-06-04T02:46:24.309Z,96099.38
2023-06-04T02:47:39.579Z,96101.25
2023-06-04T02:48:49.191Z,96096.91
2023-06-04T02:49:57.247Z,96101.25
2023-06-04T02:51:04.898Z,96100.31
2023-06-04T02:52:16.145Z,96105.44
2023-06-04T02:53:26.234Z,96107.94
2023-06-04T02:54:39.329Z,96100.31
2023-06-04T02:55:49.402Z,96100.47
2023-06-04T02:57:03.028Z,96104.56
2023-06-04T02:58:13.566Z,96104.50
2023-06-04T02:59:23.020Z,96107.94
2023-06-04T03:00:27.857Z,96101.09
2023-06-04T03:01:45.166Z,96099.34
2023-06-04T03:02:55.419Z,96102.75
2023-06-04T03:04:08.037Z,96100.16
2023-06-04T03:05:14.492Z,96099.38
2023-06-04T03:06:23.069Z,96095.06
2023-06-04T03:07:29.001Z,96103.59
2023-06-04T03:08:36.736Z,96104.44
2023-06-04T03:09:44.725Z,96103.53
2023-06-04T03:10:58.226Z,96099.38
2023-06-04T03:12:06.026Z,96099.38
2023-06-04T03:13:15.779Z,96099.38
2023-06-04T03:14:34.583Z,96105.34
2023-06-04T03:15:50.975Z,96106.28
2023-06-04T03:16:57.270Z,96100.78
2023-06-04T03:18:14.336Z,96103.44
2023-06-04T03:19:18.874Z,96101.63
2023-06-04T03:20:27.656Z,96108.09
2023-06-04T03:21:37.382Z,96103.75
2023-06-04T03:22:45.330Z,96114.72
2023-06-04T03:23:52.294Z,96118.03
2023-06-04T03:25:01.169Z,96115.44
2023-06-04T03:26:05.824Z,96109.94
2023-06-04T03:27:27.267Z,96116.56
2023-06-04T03:28:36.295Z,96112.81
2023-06-04T03:29:51.974Z,96113.44
2023-06-04T03:30:59.007Z,96112.50
2023-06-04T03:32:04.511Z,96110.75
2023-06-04T03:33:14.462Z,96108.66
2023-06-04T03:34:22.744Z,96112.19
2023-06-04T03:35:31.999Z,96117.31
2023-06-04T03:36:40.040Z,96113.84
2023-06-04T03:37:44.176Z,96124.22
2023-06-04T03:38:55.364Z,96118.19
2023-06-04T03:40:05.526Z,96125.91
2023-06-04T03:41:13.835Z,96119.91
2023-06-04T03:42:19.512Z,96117.22
2023-06-04T03:43:27.269Z,96123.31
2023-06-04T03:44:32.635Z,96129.41
2023-06-04T03:45:46.942Z,96126.75
2023-06-04T03:46:54.619Z,96127.59
2023-06-04T03:48:09.047Z,96127.59
2023-06-04T03:49:19.753Z,96125.09
2023-06-04T03:50:33.603Z,96128.41
2023-06-04T03:51:42.327Z,96126.59
2023-06-04T03:52:52.709Z,96132.59
2023-06-04T03:54:00.220Z,96131.47
2023-06-04T03:55:08.826Z,96127.25
2023-06-04T03:56:12.913Z,96127.97
2023-06-04T03:57:22.996Z,96130.47
2023-06-04T03:58:28.698Z,96129.56
2023-06-04T03:59:36.475Z,96133.97
2023-06-04T04:00:50.226Z,96128.78
2023-06-04T04:01:56.673Z,96134.75
2023-06-04T04:03:01.890Z,96134.81
2023-06-04T04:04:11.839Z,96125.13
2023-06-04T04:05:19.172Z,96138.84
2023-06-04T04:06:32.057Z,96134.59
2023-06-04T04:07:36.809Z,96135.31
2023-06-04T04:08:46.073Z,96131.84
2023-06-04T04:09:50.697Z,96137.78
2023-06-04T04:10:57.725Z,96139.47
2023-06-04T04:12:09.926Z,96138.97
2023-06-04T04:13:17.877Z,96137.47
2023-06-04T04:14:26.413Z,96137.47
2023-06-04T04:15:34.228Z,96142.56
2023-06-04T04:16:38.490Z,96135.94
2023-06-04T04:17:52.335Z,96133.34
2023-06-04T04:18:59.993Z,96138.53
2023-06-04T04:20:10.335Z,96136.69
2023-06-04T04:21:27.393Z,96139.91
2023-06-04T04:22:35.134Z,96137.22
2023-06-04T04:23:47.740Z,96141.41
2023-06-04T04:24:52.525Z,96134.38
2023-06-04T04:26:04.118Z,96135.88
2023-06-04T04:27:10.805Z,96138.25
2023-06-04T04:28:26.769Z,96139.84
2023-06-04T04:29:34.444Z,96143.81
2023-06-04T04:30:45.638Z,96141.78
2023-06-04T04:31:50.287Z,96144.97
2023-06-04T04:33:02.622Z,96147.41
2023-06-04T04:34:10.453Z,96146.16
2023-06-04T04:35:20.070Z,96148.53
2023-06-04T04:36:31.412Z,96149.03
2023-06-04T04:37:35.574Z,96148.84
2023-06-04T04:38:52.584Z,96146.84
2023-06-04T04:40:00.304Z,96148.38
2023-06-04T04:41:09.556Z,96153.34
2023-06-04T04:42:16.732Z,96147.72
2023-06-04T04:43:33.786Z,96146.44
2023-06-04T04:44:38.338Z,96157.34
2023-06-04T04:45:47.116Z,96158.41
2023-06-04T04:46:51.457Z,96157.13
2023-06-04T04:48:03.447Z,96159.25
2023-06-04T04:49:10.864Z,96161.19
2023-06-04T04:50:18.535Z,96152.97
2023-06-04T04:51:31.079Z,96150.00
2023-06-04T04:52:38.531Z,96159.63
2023-06-04T04:53:51.696Z,96161.88
2023-06-04T04:54:59.446Z,96146.63
2023-06-04T04:56:09.452Z,96149.56
2023-06-04T04:57:19.224Z,96150.84
2023-06-04T04:58:23.282Z,96153.81
2023-06-04T04:59:36.391Z,96155.16
2023-06-04T05:00:41.462Z,96155.34
2023-06-04T05:01:57.272Z,96145.50
2023-06-04T05:03:05.647Z,96153.13
2023-06-04T05:04:13.192Z,96156.31
2023-06-04T05:05:17.694Z,96152.38
2023-06-04T05:06:25.391Z,96158.16
2023-06-04T05:07:37.560Z,96156.19
2023-06-04T05:08:47.422Z,96166.59
2023-06-04T05:09:54.740Z,96161.50
2023-06-04T05:11:02.123Z,96160.47
2023-06-04T05:12:07.397Z,96159.16
2023-06-04T05:13:14.573Z,96164.47
2023-06-04T05:14:19.270Z,96160.91
2023-06-04T05:15:31.932Z,96169.56
2023-06-04T05:16:45.948Z,96156.53
2023-06-04T05:17:58.391Z,96160.53
2023-06-04T05:19:04.434Z,96164.63
2023-06-04T05:20:14.884Z,96167.81
2023-06-04T05:21:22.393Z,96166.09
2023-06-04T05:22:31.149Z,96171.31
2023-06-04T05:23:39.296Z,96171.13
2023-06-04T05:24:46.535Z,96174.69
2023-06-04T05:25:54.252Z,96167.59
2023-06-04T05:26:59.213Z,96169.28
2023-06-04T05:28:10.677Z,96170.03
2023-06-04T05:29:16.679Z,96174.09
2023-06-04T05:30:30.271Z,96173.91
2023-06-04T05:31:34.985Z,96182.19
2023-06-04T05:32:45.846Z,96175.75
2023-06-04T05:33:50.045Z,96179.63
2023-06-04T05:34:58.960Z,96181.19
2023-06-04T05:36:10.375Z,96178.13
2023-06-04T05:37:18.934Z,96178.66
2023-06-04T05:38:27.810Z,96179.00
2023-06-04T05:39:35.616Z,96182.88
2023-06-04T05:40:45.808Z,96185.81
2023-06-04T05:41:50.171Z,96179.38
2023-06-04T05:43:00.314Z,96178.13
2023-06-04T05:44:07.488Z,96178.75
2023-06-04T05:45:17.743Z,96183.59
2023-06-04T05:46:24.046Z,96192.16
2023-06-04T05:47:30.833Z,96187.97
2023-06-04T05:48:38.708Z,96185.19
2023-06-04T05:49:43.060Z,96182.47
2023-06-04T05:50:53.945Z,96190.22
2023-06-04T05:52:00.712Z,96184.88
2023-06-04T05:53:09.686Z,96184.03
2023-06-04T05:54:14.538Z,96185.19
2023-06-04T05:55:24.986Z,96184.47
2023-06-04T05:56:33.140Z,96185.53
2023-06-04T05:57:40.710Z,96189.69
2023-06-04T05:58:45.399Z,96195.72
2023-06-04T05:59:53.696Z,96186.03
2023-06-04T06:00:58.388Z,96189.28
2023-06-04T06:02:06.142Z,96197.72
2023-06-04T06:03:11.978Z,96194.91
2023-06-04T06:04:19.886Z,96194.91
2023-06-04T06:05:23.808Z,96192.84
2023-06-04T06:06:30.737Z,96194.31
2023-06-04T06:07:37.913Z,96195.44
2023-06-04T06:08:49.694Z,96195.97
2023-06-04T06:10:03.851Z,96202.88
2023-06-04T06:11:13.588Z,96201.13
2023-06-04T06:12:22.340Z,96196.41
2023-06-04T06:13:29.895Z,96192.66
2023-06-04T06:14:39.144Z,96194.63
2023-06-04T06:15:46.449Z,96201.84
2023-06-04T06:16:56.918Z,96201.25
2023-06-04T06:18:03.665Z,96204.16
2023-06-04T06:19:07.846Z,96209.59
2023-06-04T06:20:19.258Z,96202.38
2023-06-04T06:21:23.880Z,96199.13
2023-06-04T06:22:30.978Z,96200.38
2023-06-04T06:23:36.145Z,96196.19
2023-06-04T06:24:45.180Z,96198.88
2023-06-04T06:25:58.774Z,96209.00
2023-06-04T06:27:05.828Z,96196.88
2023-06-04T06:28:13.556Z,96195.25
2023-06-04T06:29:20.917Z,96204.41
2023-06-04T06:30:25.719Z,96199.13
2023-06-04T06:31:34.686Z,96201.34
2023-06-04T06:32:48.068Z,96201.91
2023-06-04T06:33:52.454Z,96202.19
2023-06-04T06:35:02.837Z,96199.25
2023-06-04T06:36:08.039Z,96202.88
2023-06-04T06:37:14.620Z,96199.78
2023-06-04T06:38:19.325Z,96208.38
2023-06-04T06:39:28.849Z,96205.28
2023-06-04T06:40:33.570Z,96201.00
2023-06-04T06:41:44.028Z,96211.22
2023-06-04T06:42:53.875Z,96205.00
2023-06-04T06:44:06.802Z,96207.34
2023-06-04T06:45:12.020Z,96206.56
2023-06-04T06:46:19.280Z,96211.78
2023-06-04T06:47:24.012Z,96212.88
2023-06-04T06:48:38.669Z,96208.59
2023-06-04T06:49:43.361Z,96212.56
2023-06-04T06:50:50.376Z,96205.50
2023-06-04T06:51:55.084Z,96202.00
2023-06-04T06:53:10.017Z,96212.19
2023-06-04T06:54:17.038Z,96206.03
2023-06-04T06:55:24.052Z,96212.56
2023-06-04T06:56:28.809Z,96217.91
2023-06-04T06:57:37.453Z,96210.84
2023-06-04T06:58:45.300Z,96219.50
2023-06-04T06:59:56.486Z,96218.41
2023-06-04T07:01:01.428Z,96223.97
2023-06-04T07:02:09.510Z,96219.16
2023-06-04T07:03:22.727Z,96214.84
2023-06-04T07:04:33.321Z,96219.25
2023-06-04T07:05:43.417Z,96214.00
2023-06-04T07:06:54.308Z,96217.91
2023-06-04T07:08:02.925Z,96210.91
2023-06-04T07:09:11.698Z,96217.25
2023-06-04T07:10:21.899Z,96217.41
2023-06-04T07:11:28.226Z,96211.72
2023-06-04T07:12:35.768Z,96213.63
2023-06-04T07:13:40.387Z,96217.34
2023-06-04T07:14:50.299Z,96221.56
2023-06-04T07:16:01.422Z,96210.25
2023-06-04T07:17:08.237Z,96217.97
2023-06-04T07:18:13.223Z,96214.16
2023-06-04T07:19:22.235Z,96212.47
2023-06-04T07:20:29.833Z,96219.13
2023-06-04T07:21:36.911Z,96211.38
2023-06-04T07:22:58.417Z,96217.78
2023-06-04T07:24:08.319Z,96217.75
2023-06-04T07:25:17.602Z,96217.72
2023-06-04T07:26:34.947Z,96222.19
2023-06-04T07:27:43.452Z,96220.25
2023-06-04T07:28:50.742Z,96216.53
2023-06-04T07:29:59.383Z,96221.84
2023-06-04T07:31:09.967Z,96220.72
2023-06-04T07:32:17.706Z,96220.19
2023-06-04T07:33:32.641Z,96219.63
2023-06-04T07:34:39.074Z,96220.47
2023-06-04T07:35:46.295Z,96215.72
2023-06-04T07:36:51.529Z,96217.38
2023-06-04T07:37:59.530Z,96220.13
2023-06-04T07:39:04.942Z,96212.69
2023-06-04T07:40:13.268Z,96218.78
2023-06-04T07:41:18.496Z,96222.13
2023-06-04T07:42:26.119Z,96223.22
2023-06-04T07:43:33.619Z,96224.22
2023-06-04T07:44:41.407Z,96222.66
2023-06-04T07:45:50.681Z,96217.38
2023-06-04T07:46:57.690Z,96222.09
2023-06-04T07:48:05.196Z,96221.16
2023-06-04T07:49:11.025Z,96223.22
2023-06-04T07:50:18.403Z,96222.94
2023-06-04T07:51:23.689Z,96226.84
2023-06-04T07:52:30.364Z,96229.75
2023-06-04T07:53:38.026Z,96230.16
2023-06-04T07:54:43.773Z,96224.31
2023-06-04T07:55:52.283Z,96222.13
2023-06-04T07:56:57.823Z,96226.41
2023-06-04T07:58:09.606Z,96221.28
2023-06-04T07:59:22.147Z,96227.09
2023-06-04T08:00:29.184Z,96227.63
2023-06-04T08:01:33.823Z,96226.69
2023-06-04T08:02:49.103Z,96221.41
2023-06-04T08:04:00.242Z,96222.06
2023-06-04T08:05:10.084Z,96222.47
2023-06-04T08:06:24.396Z,96222.19
2023-06-04T08:07:28.892Z,96219.53
2023-06-04T08:08:36.369Z,96221.44
2023-06-04T08:09:53.293Z,96220.63
2023-06-04T08:11:00.065Z,96220.19
2023-06-04T08:12:11.228Z,96222.16
2023-06-04T08:13:19.315Z,96218.81
2023-06-04T08:14:29.959Z,96219.78
2023-06-04T08:15:37.740Z,96220.81
2023-06-04T08:16:46.335Z,96212.53
2023-06-04T08:17:57.404Z,96212.72
2023-06-04T08:19:06.743Z,96215.38
2023-06-04T08:20:17.006Z,96216.78
2023-06-04T08:21:31.691Z,96214.19
2023-06-04T08:22:47.490Z,96210.84
2023-06-04T08:23:57.850Z,96208.38
2023-06-04T08:25:17.853Z,96210.19
2023-06-04T08:26:22.548Z,96207.81
2023-06-04T08:27:47.308Z,96217.97
2023-06-04T08:28:52.230Z,96208.63
2023-06-04T08:30:02.859Z,96219.88
2023-06-04T08:31:13.368Z,96215.72
2023-06-04T08:32:22.157Z,96209.75
2023-06-04T08:33:42.800Z,96211.25
2023-06-04T08:34:48.123Z,96207.38
2023-06-04T08:35:50.774Z,96217.50
2023-06-04T08:36:56.146Z,96218.16
2023-06-04T08:37:59.426Z,96225.06
2023-06-04T08:39:04.843Z,96219.75
2023-06-04T08:40:10.411Z,96218.38
2023-06-04T08:41:20.407Z,96220.88
2023-06-04T08:42:28.204Z,96216.34
2023-06-04T08:43:34.942Z,96216.16
2023-06-04T08:44:37.286Z,96220.28
2023-06-04T08:45:44.272Z,96227.31
2023-06-04T08:46:52.984Z,96228.13
2023-06-04T08:47:59.393Z,96230.94
2023-06-04T08:49:06.158Z,96222.47
2023-06-04T08:50:15.429Z,96223.97
2023-06-04T08:51:19.368Z,96220.38
2023-06-04T08:52:24.814Z,96222.63
2023-06-04T08:53:28.189Z,96219.22
2023-06-04T08:54:35.454Z,96225.06
2023-06-04T08:55:39.727Z,96215.84
2023-06-04T08:56:48.382Z,96219.19
2023-06-04T08:57:52.843Z,96221.91
2023-06-04T08:59:05.216Z,96219.94
2023-06-04T09:00:13.256Z,96214.38
2023-06-04T09:01:19.539Z,96218.97
2023-06-04T09:02:25.324Z,96223.25
2023-06-04T09:03:28.144Z,96225.25
2023-06-04T09:04:36.580Z,96225.25
2023-06-04T09:05:41.385Z,96224.09
2023-06-04T09:06:47.106Z,96225.25
2023-06-04T09:07:53.148Z,96223.38
2023-06-04T09:09:02.015Z,96215.53
2023-06-04T09:10:13.407Z,96222.22
2023-06-04T09:11:21.164Z,96220.41
2023-06-04T09:12:30.236Z,96224.63
2023-06-04T09:13:36.260Z,96219.81
2023-06-04T09:14:41.157Z,96225.88
2023-06-04T09:15:45.452Z,96221.41
2023-06-04T09:16:52.005Z,96221.50
2023-06-04T09:17:54.647Z,96219.09
2023-06-04T09:19:01.594Z,96227.59
2023-06-04T09:20:10.166Z,96224.13
2023-06-04T09:21:15.236Z,96218.22
2023-06-04T09:22:17.545Z,96220.34
2023-06-04T09:23:23.953Z,96216.13
2023-06-04T09:24:31.461Z,96218.03
2023-06-04T09:25:36.456Z,96224.69
2023-06-04T09:26:38.873Z,96220.75
2023-06-04T09:27:45.193Z,96220.94
2023-06-04T09:28:51.158Z,96211.66
2023-06-04T09:29:55.032Z,96219.50
2023-06-04T09:31:00.230Z,96229.78
2023-06-04T09:32:05.152Z,96234.69
2023-06-04T09:33:10.956Z,96224.47
2023-06-04T09:34:16.617Z,96229.19
2023-06-04T09:35:22.331Z,96231.91
2023-06-04T09:36:34.566Z,96229.75
2023-06-04T09:37:37.003Z,96224.31
2023-06-04T09:38:42.316Z,96226.69
2023-06-04T09:39:47.725Z,96226.63
2023-06-04T09:40:51.312Z,96223.88
2023-06-04T09:42:03.416Z,96226.06
2023-06-04T09:43:07.336Z,96227.72
2023-06-04T09:44:14.816Z,96225.88
2023-06-04T09:45:29.128Z,96226.44
2023-06-04T09:46:35.262Z,96230.78
2023-06-04T09:47:41.380Z,96234.56
2023-06-04T09:48:47.804Z,96226.53
2023-06-04T09:49:52.158Z,96229.94
2023-06-04T09:51:10.957Z,96228.44
2023-06-04T09:52:14.053Z,96219.41
2023-06-04T09:53:19.678Z,96219.78
2023-06-04T09:54:22.088Z,96223.13
2023-06-04T09:55:27.404Z,96220.13
2023-06-04T09:56:30.275Z,96221.94
2023-06-04T09:57:37.559Z,96220.72
2023-06-04T09:58:41.685Z,96218.91
2023-06-04T09:59:49.732Z,96218.28
2023-06-04T10:00:52.306Z,96216.84
2023-06-04T10:01:57.556Z,96211.72
2023-06-04T10:03:04.342Z,96214.88
2023-06-04T10:04:13.273Z,96219.84
2023-06-04T10:05:16.201Z,96222.66
2023-06-04T10:06:24.611Z,96217.97
2023-06-04T10:07:28.021Z,96216.00
2023-06-04T10:08:35.292Z,96226.13
2023-06-04T10:09:46.724Z,96211.09
2023-06-04T10:10:54.375Z,96214.81
2023-06-04T10:12:01.188Z,96211.16
2023-06-04T10:13:11.122Z,96219.16
2023-06-04T10:14:21.608Z,96215.69
2023-06-04T10:15:27.295Z,96213.03
2023-06-04T10:16:35.053Z,96219.66
2023-06-04T10:17:41.795Z,96211.38
2023-06-04T10:18:46.831Z,96207.94
2023-06-04T10:19:55.316Z,96219.31
2023-06-04T10:21:01.024Z,96212.38
2023-06-04T10:22:11.382Z,96218.03
2023-06-04T10:23:22.288Z,96220.31
2023-06-04T10:24:28.275Z,96223.00
2023-06-04T10:25:34.957Z,96217.81
2023-06-04T10:26:42.959Z,96213.00
2023-06-04T10:27:50.664Z,96218.63
2023-06-04T10:28:58.128Z,96216.13
2023-06-04T10:30:01.027Z,96221.53
2023-06-04T10:31:06.254Z,96214.97
2023-06-04T10:32:09.160Z,96219.84
2023-06-04T10:33:16.926Z,96220.84
2023-06-04T10:34:21.393Z,96214.19
2023-06-04T10:35:34.511Z,96220.19
2023-06-04T10:36:44.995Z,96211.91
2023-06-04T10:37:54.809Z,96209.66
2023-06-04T10:38:57.453Z,96216.00
2023-06-04T10:40:06.103Z,96203.28
2023-06-04T10:41:15.680Z,96201.78
2023-06-04T10:42:22.558Z,96199.28
2023-06-04T10:43:32.100Z,96200.31
2023-06-04T10:44:50.709Z,96205.34
2023-06-04T10:45:53.347Z,96207.31
2023-06-04T10:46:58.239Z,96207.81
2023-06-04T10:48:06.909Z,96211.81
2023-06-04T10:49:11.749Z,96204.47
2023-06-04T10:50:17.905Z,96209.28
2023-06-04T10:51:34.415Z,96212.75
2023-06-04T10:52:37.279Z,96204.25
2023-06-04T10:53:45.033Z,96206.41
2023-06-04T10:54:50.010Z,96204.19
2023-06-04T10:55:54.908Z,96205.78
2023-06-04T10:56:57.290Z,96204.78
2023-06-04T10:58:05.154Z,96206.72
2023-06-04T10:59:19.024Z,96202.44
2023-06-04T11:00:24.103Z,96204.72
2023-06-04T11:01:28.161Z,96200.25
2023-06-04T11:02:33.513Z,96203.22
2023-06-04T11:03:39.447Z,96203.22
2023-06-04T11:04:45.210Z,96198.91
2023-06-04T11:05:52.005Z,96198.81
2023-06-04T11:07:05.118Z,96203.03
2023-06-04T11:08:11.080Z,96203.56
2023-06-04T11:09:18.133Z,96198.69
2023-06-04T11:10:35.844Z,96204.84
2023-06-04T11:11:42.344Z,96192.78
2023-06-04T11:12:45.367Z,96198.22
2023-06-04T11:13:50.384Z,96197.41
2023-06-04T11:14:56.576Z,96196.16
2023-06-04T11:16:01.553Z,96194.16
2023-06-04T11:17:14.880Z,96194.56
2023-06-04T11:18:21.519Z,96195.13
2023-06-04T11:19:24.262Z,96193.88
2023-06-04T11:20:30.355Z,96189.22
2023-06-04T11:21:39.356Z,96197.56
2023-06-04T11:22:41.678Z,96189.69
2023-06-04T11:23:46.705Z,96197.31
2023-06-04T11:24:57.960Z,96198.84
2023-06-04T11:26:02.923Z,96202.72
2023-06-04T11:27:12.459Z,96203.97
2023-06-04T11:28:23.210Z,96202.91
2023-06-04T11:29:26.147Z,96202.19
2023-06-04T11:30:31.276Z,96207.19
2023-06-04T11:31:43.834Z,96198.59
2023-06-04T11:32:49.026Z,96194.41
2023-06-04T11:33:51.307Z,96195.38
2023-06-04T11:35:07.665Z,96195.16
2023-06-04T11:36:10.428Z,96199.28
2023-06-04T11:37:15.351Z,96195.88
2023-06-04T11:38:17.563Z,96198.25
2023-06-04T11:39:22.682Z,96202.72
2023-06-04T11:40:28.390Z,96204.78
2023-06-04T11:41:34.675Z,96202.22
2023-06-04T11:42:44.258Z,96190.94
2023-06-04T11:43:52.435Z,96196.63
2023-06-04T11:44:57.833Z,96205.63
2023-06-04T11:46:02.849Z,96197.22
2023-06-04T11:47:08.175Z,96203.47
2023-06-04T11:48:16.275Z,96201.72
2023-06-04T11:49:20.515Z,96199.47
2023-06-04T11:50:25.929Z,96197.72
2023-06-04T11:51:28.870Z,96199.16
2023-06-04T11:52:34.224Z,96198.63
2023-06-04T11:53:41.521Z,96201.34
2023-06-04T11:54:43.861Z,96202.56
2023-06-04T11:55:51.857Z,96195.50
2023-06-04T11:56:55.189Z,96194.44
2023-06-04T11:58:00.752Z,96192.06
2023-06-04T11:59:03.585Z,96187.22
2023-06-04T12:00:13.460Z,96188.47
2023-06-04T12:01:18.968Z,96184.16
2023-06-04T12:02:24.213Z,96186.16
2023-06-04T12:03:42.417Z,96180.69
2023-06-04T12:04:44.900Z,96177.19
2023-06-04T12:05:50.546Z,96168.13
2023-06-04T12:06:54.277Z,96181.09
2023-06-04T12:08:08.384Z,96179.63
2023-06-04T12:09:23.984Z,96176.50
2023-06-04T12:10:30.086Z,96175.63
2023-06-04T12:11:36.007Z,96178.31
2023-06-04T12:12:41.905Z,96171.44
2023-06-04T12:13:44.340Z,96172.72
2023-06-04T12:14:49.514Z,96158.25
2023-06-04T12:15:53.699Z,96167.88
2023-06-04T12:17:00.248Z,96166.59
2023-06-04T12:18:05.508Z,96161.38
2023-06-04T12:19:12.582Z,96166.81
2023-06-04T12:20:17.615Z,96173.31
2023-06-04T12:21:27.976Z,96159.97
2023-06-04T12:22:36.108Z,96163.03
2023-06-04T12:23:38.951Z,96165.78
2023-06-04T12:24:54.696Z,96162.53
2023-06-04T12:26:01.530Z,96174.25
2023-06-04T12:27:10.626Z,96172.06
2023-06-04T12:28:21.685Z,96169.13
2023-06-04T12:29:24.406Z,96168.25
2023-06-04T12:30:40.181Z,96157.50
2023-06-04T12:31:44.068Z,96164.31
2023-06-04T12:32:49.969Z,96163.03
2023-06-04T12:33:52.666Z,96166.50
2023-06-04T12:34:58.384Z,96157.09
2023-06-04T12:36:04.510Z,96156.25
2023-06-04T12:37:07.925Z,96159.97
2023-06-04T12:38:13.228Z,96154.81
2023-06-04T12:39:16.980Z,96159.53
2023-06-04T12:40:22.026Z,96157.06
2023-06-04T12:41:24.544Z,96167.31
2023-06-04T12:42:32.874Z,96171.09
2023-06-04T12:43:38.710Z,96166.81
2023-06-04T12:44:44.292Z,96167.38
2023-06-04T12:45:47.681Z,96163.66
2023-06-04T12:46:52.581Z,96161.50
2023-06-04T12:47:55.038Z,96168.94
2023-06-04T12:49:00.207Z,96155.22
2023-06-04T12:50:02.723Z,96168.06
2023-06-04T12:51:08.159Z,96166.69
2023-06-04T12:52:15.268Z,96169.97
2023-06-04T12:53:17.987Z,96168.75
2023-06-04T12:54:22.989Z,96168.72
2023-06-04T12:55:27.984Z,96170.06
2023-06-04T12:56:33.474Z,96168.19
2023-06-04T12:57:39.255Z,96165.91
2023-06-04T12:58:44.530Z,96158.84
2023-06-04T12:59:46.900Z,96163.13
2023-06-04T13:00:52.727Z,96162.31
2023-06-04T13:01:55.749Z,96160.09
2023-06-04T13:03:01.199Z,96165.00
2023-06-04T13:04:12.880Z,96161.03
2023-06-04T13:05:17.151Z,96156.31
2023-06-04T13:06:22.063Z,96156.50
2023-06-04T13:07:27.447Z,96155.72
2023-06-04T13:08:33.466Z,96146.78
2023-06-04T13:09:36.566Z,96148.72
2023-06-04T13:10:41.834Z,96156.28
2023-06-04T13:11:47.354Z,96157.00
2023-06-04T13:12:54.950Z,96157.69
2023-06-04T13:13:57.170Z,96152.19
2023-06-04T13:15:03.685Z,96153.25
2023-06-04T13:16:06.226Z,96155.97
2023-06-04T13:17:22.206Z,96148.06
2023-06-04T13:18:25.580Z,96153.88
2023-06-04T13:19:30.630Z,96157.75